sensor_id;sensor_type;location;lat;lon;timestamp;P1;durP1;ratioP1;P2;durP2;ratioP2
8232;SDS011;4157;48.074;9.952;2024-02-21T00:00:52;11.18;;;3.90;;
8232;SDS011;4157;48.074;9.952;2024-02-21T00:03:20;10.43;;;3.63;;
8232;SDS011;4157;48.074;9.952;2024-02-21T00:05:48;8.27;;;4.13;;
8232;SDS011;4157;48.074;9.952;2024-02-21T00:08:15;7.78;;;3.40;;
8232;SDS011;4157;48.074;9.952;2024-02-21T00:10:43;9.15;;;3.63;;
8232;SDS011;4157;48.074;9.952;2024-02-21T00:13:12;8.20;;;3.35;;
8232;SDS011;4157;48.074;9.952;2024-02-21T00:15:41;10.63;;;3.80;;
8232;SDS011;4157;48.074;9.952;2024-02-21T00:18:08;8.85;;;3.60;;
8232;SDS011;4157;48.074;9.952;2024-02-21T00:20:36;10.98;;;3.58;;
8232;SDS011;4157;48.074;9.952;2024-02-21T00:23:04;9.38;;;3.50;;
8232;SDS011;4157;48.074;9.952;2024-02-21T00:25:32;9.88;;;3.60;;
8232;SDS011;4157;48.074;9.952;2024-02-21T00:28:00;8.70;;;3.58;;
8232;SDS011;4157;48.074;9.952;2024-02-21T00:30:27;9.75;;;3.83;;
8232;SDS011;4157;48.074;9.952;2024-02-21T00:32:56;9.60;;;4.30;;
8232;SDS011;4157;48.074;9.952;2024-02-21T00:35:24;9.45;;;3.88;;
8232;SDS011;4157;48.074;9.952;2024-02-21T00:37:52;10.10;;;4.43;;
8232;SDS011;4157;48.074;9.952;2024-02-21T00:40:19;10.95;;;4.00;;
8232;SDS011;4157;48.074;9.952;2024-02-21T00:42:47;9.45;;;4.25;;
8232;SDS011;4157;48.074;9.952;2024-02-21T00:45:15;10.32;;;3.53;;
8232;SDS011;4157;48.074;9.952;2024-02-21T00:47:43;9.07;;;4.35;;
8232;SDS011;4157;48.074;9.952;2024-02-21T00:50:12;10.00;;;3.70;;
8232;SDS011;4157;48.074;9.952;2024-02-21T00:52:39;10.43;;;4.03;;
8232;SDS011;4157;48.074;9.952;2024-02-21T00:55:08;7.40;;;3.67;;
8232;SDS011;4157;48.074;9.952;2024-02-21T00:57:36;8.52;;;4.10;;
8232;SDS011;4157;48.074;9.952;2024-02-21T01:00:04;9.90;;;3.60;;
8232;SDS011;4157;48.074;9.952;2024-02-21T01:02:33;10.63;;;3.92;;
8232;SDS011;4157;48.074;9.952;2024-02-21T01:05:01;8.82;;;3.38;;
8232;SDS011;4157;48.074;9.952;2024-02-21T01:07:31;7.30;;;3.85;;
8232;SDS011;4157;48.074;9.952;2024-02-21T01:09:58;8.20;;;3.55;;
8232;SDS011;4157;48.074;9.952;2024-02-21T01:12:26;11.82;;;4.00;;
8232;SDS011;4157;48.074;9.952;2024-02-21T01:14:54;7.93;;;4.22;;
8232;SDS011;4157;48.074;9.952;2024-02-21T01:17:22;8.32;;;3.45;;
8232;SDS011;4157;48.074;9.952;2024-02-21T01:19:49;8.85;;;3.30;;
8232;SDS011;4157;48.074;9.952;2024-02-21T01:22:17;9.32;;;4.15;;
8232;SDS011;4157;48.074;9.952;2024-02-21T01:24:46;8.93;;;3.75;;
8232;SDS011;4157;48.074;9.952;2024-02-21T01:27:14;8.40;;;3.50;;
8232;SDS011;4157;48.074;9.952;2024-02-21T01:29:42;7.88;;;3.58;;
8232;SDS011;4157;48.074;9.952;2024-02-21T01:32:09;8.50;;;3.22;;
8232;SDS011;4157;48.074;9.952;2024-02-21T01:34:37;8.60;;;3.60;;
8232;SDS011;4157;48.074;9.952;2024-02-21T01:37:05;9.20;;;3.72;;
8232;SDS011;4157;48.074;9.952;2024-02-21T01:39:33;8.57;;;3.55;;
8232;SDS011;4157;48.074;9.952;2024-02-21T01:42:02;6.00;;;3.30;;
8232;SDS011;4157;48.074;9.952;2024-02-21T01:44:30;9.30;;;3.90;;
8232;SDS011;4157;48.074;9.952;2024-02-21T01:46:57;8.75;;;3.60;;
8232;SDS011;4157;48.074;9.952;2024-02-21T01:49:25;6.78;;;3.58;;
8232;SDS011;4157;48.074;9.952;2024-02-21T01:51:53;11.57;;;4.15;;
8232;SDS011;4157;48.074;9.952;2024-02-21T01:54:21;8.80;;;3.60;;
8232;SDS011;4157;48.074;9.952;2024-02-21T01:56:49;9.57;;;3.95;;
8232;SDS011;4157;48.074;9.952;2024-02-21T01:59:19;9.30;;;4.38;;
8232;SDS011;4157;48.074;9.952;2024-02-21T02:01:46;8.85;;;4.45;;
8232;SDS011;4157;48.074;9.952;2024-02-21T02:04:14;9.98;;;3.85;;
8232;SDS011;4157;48.074;9.952;2024-02-21T02:06:42;8.27;;;4.10;;
8232;SDS011;4157;48.074;9.952;2024-02-21T02:09:10;7.18;;;4.10;;
8232;SDS011;4157;48.074;9.952;2024-02-21T02:11:37;8.05;;;3.85;;
8232;SDS011;4157;48.074;9.952;2024-02-21T02:14:05;7.20;;;3.53;;
8232;SDS011;4157;48.074;9.952;2024-02-21T02:16:34;9.02;;;4.32;;
8232;SDS011;4157;48.074;9.952;2024-02-21T02:19:02;9.35;;;4.70;;
8232;SDS011;4157;48.074;9.952;2024-02-21T02:21:30;9.93;;;4.13;;
8232;SDS011;4157;48.074;9.952;2024-02-21T02:24:00;8.50;;;3.78;;
8232;SDS011;4157;48.074;9.952;2024-02-21T02:26:28;9.15;;;4.22;;
8232;SDS011;4157;48.074;9.952;2024-02-21T02:28:56;9.50;;;4.25;;
8232;SDS011;4157;48.074;9.952;2024-02-21T02:31:23;10.82;;;4.50;;
8232;SDS011;4157;48.074;9.952;2024-02-21T02:33:51;10.00;;;4.05;;
8232;SDS011;4157;48.074;9.952;2024-02-21T02:36:18;8.95;;;4.57;;
8232;SDS011;4157;48.074;9.952;2024-02-21T02:38:46;12.02;;;4.28;;
8232;SDS011;4157;48.074;9.952;2024-02-21T02:41:15;9.65;;;4.65;;
8232;SDS011;4157;48.074;9.952;2024-02-21T02:43:43;10.48;;;5.18;;
8232;SDS011;4157;48.074;9.952;2024-02-21T02:46:10;10.55;;;5.10;;
8232;SDS011;4157;48.074;9.952;2024-02-21T02:48:38;10.68;;;5.40;;
8232;SDS011;4157;48.074;9.952;2024-02-21T02:51:06;9.05;;;5.00;;
8232;SDS011;4157;48.074;9.952;2024-02-21T02:53:33;13.85;;;5.40;;
8232;SDS011;4157;48.074;9.952;2024-02-21T02:56:01;10.27;;;4.97;;
8232;SDS011;4157;48.074;9.952;2024-02-21T02:58:30;9.73;;;4.88;;
8232;SDS011;4157;48.074;9.952;2024-02-21T03:00:57;13.13;;;5.15;;
8232;SDS011;4157;48.074;9.952;2024-02-21T03:03:25;10.98;;;5.90;;
8232;SDS011;4157;48.074;9.952;2024-02-21T03:05:53;11.32;;;5.63;;
8232;SDS011;4157;48.074;9.952;2024-02-21T03:08:20;11.60;;;4.50;;
8232;SDS011;4157;48.074;9.952;2024-02-21T03:10:48;6.95;;;3.03;;
8232;SDS011;4157;48.074;9.952;2024-02-21T03:13:16;7.97;;;3.67;;
8232;SDS011;4157;48.074;9.952;2024-02-21T03:15:45;6.97;;;3.22;;
8232;SDS011;4157;48.074;9.952;2024-02-21T03:18:12;7.35;;;3.55;;
8232;SDS011;4157;48.074;9.952;2024-02-21T03:20:40;8.45;;;3.42;;
8232;SDS011;4157;48.074;9.952;2024-02-21T03:23:08;10.20;;;3.00;;
8232;SDS011;4157;48.074;9.952;2024-02-21T03:25:35;7.95;;;3.55;;
8232;SDS011;4157;48.074;9.952;2024-02-21T03:28:03;6.43;;;3.50;;
8232;SDS011;4157;48.074;9.952;2024-02-21T03:30:31;6.25;;;3.17;;
8232;SDS011;4157;48.074;9.952;2024-02-21T03:33:00;8.88;;;3.28;;
8232;SDS011;4157;48.074;9.952;2024-02-21T03:35:28;7.43;;;3.13;;
8232;SDS011;4157;48.074;9.952;2024-02-21T03:37:56;8.18;;;2.88;;
8232;SDS011;4157;48.074;9.952;2024-02-21T03:40:23;7.07;;;2.95;;
8232;SDS011;4157;48.074;9.952;2024-02-21T03:42:51;6.68;;;3.08;;
8232;SDS011;4157;48.074;9.952;2024-02-21T03:45:19;6.70;;;3.38;;
8232;SDS011;4157;48.074;9.952;2024-02-21T03:47:46;8.25;;;3.10;;
8232;SDS011;4157;48.074;9.952;2024-02-21T03:50:15;5.13;;;2.58;;
8232;SDS011;4157;48.074;9.952;2024-02-21T03:52:43;4.93;;;2.55;;
8232;SDS011;4157;48.074;9.952;2024-02-21T03:55:10;6.90;;;3.05;;
8232;SDS011;4157;48.074;9.952;2024-02-21T03:57:38;7.28;;;2.72;;
8232;SDS011;4157;48.074;9.952;2024-02-21T04:00:06;5.53;;;2.55;;
8232;SDS011;4157;48.074;9.952;2024-02-21T04:02:37;5.90;;;2.63;;
8232;SDS011;4157;48.074;9.952;2024-02-21T04:05:05;4.75;;;2.22;;
8232;SDS011;4157;48.074;9.952;2024-02-21T04:07:37;6.60;;;3.38;;
8232;SDS011;4157;48.074;9.952;2024-02-21T04:10:06;7.38;;;3.17;;
8232;SDS011;4157;48.074;9.952;2024-02-21T04:12:33;8.07;;;5.18;;
8232;SDS011;4157;48.074;9.952;2024-02-21T04:15:01;6.70;;;3.50;;
8232;SDS011;4157;48.074;9.952;2024-02-21T04:17:29;8.27;;;3.22;;
8232;SDS011;4157;48.074;9.952;2024-02-21T04:20:01;8.77;;;3.42;;
8232;SDS011;4157;48.074;9.952;2024-02-21T04:22:30;6.65;;;2.83;;
8232;SDS011;4157;48.074;9.952;2024-02-21T04:25:00;5.80;;;2.22;;
8232;SDS011;4157;48.074;9.952;2024-02-21T04:27:28;4.90;;;2.67;;
8232;SDS011;4157;48.074;9.952;2024-02-21T04:29:56;5.15;;;2.00;;
8232;SDS011;4157;48.074;9.952;2024-02-21T04:32:23;5.15;;;1.90;;
8232;SDS011;4157;48.074;9.952;2024-02-21T04:34:52;4.05;;;2.08;;
8232;SDS011;4157;48.074;9.952;2024-02-21T04:37:20;6.20;;;2.10;;
8232;SDS011;4157;48.074;9.952;2024-02-21T04:39:48;5.38;;;2.00;;
8232;SDS011;4157;48.074;9.952;2024-02-21T04:42:17;7.10;;;2.30;;
8232;SDS011;4157;48.074;9.952;2024-02-21T04:44:44;6.43;;;2.40;;
8232;SDS011;4157;48.074;9.952;2024-02-21T04:47:12;6.70;;;2.60;;
8232;SDS011;4157;48.074;9.952;2024-02-21T04:49:40;5.65;;;2.00;;
8232;SDS011;4157;48.074;9.952;2024-02-21T04:52:07;4.20;;;2.17;;
8232;SDS011;4157;48.074;9.952;2024-02-21T04:54:35;6.82;;;2.35;;
8232;SDS011;4157;48.074;9.952;2024-02-21T04:57:03;5.55;;;1.90;;
8232;SDS011;4157;48.074;9.952;2024-02-21T04:59:32;5.80;;;1.98;;
8232;SDS011;4157;48.074;9.952;2024-02-21T05:02:00;5.47;;;1.92;;
8232;SDS011;4157;48.074;9.952;2024-02-21T05:04:28;4.63;;;2.10;;
8232;SDS011;4157;48.074;9.952;2024-02-21T05:06:56;4.45;;;1.77;;
8232;SDS011;4157;48.074;9.952;2024-02-21T05:09:23;4.60;;;2.05;;
8232;SDS011;4157;48.074;9.952;2024-02-21T05:11:51;4.43;;;1.80;;
8232;SDS011;4157;48.074;9.952;2024-02-21T05:14:19;4.70;;;1.88;;
8232;SDS011;4157;48.074;9.952;2024-02-21T05:16:48;3.85;;;1.90;;
8232;SDS011;4157;48.074;9.952;2024-02-21T05:19:15;4.90;;;2.13;;
8232;SDS011;4157;48.074;9.952;2024-02-21T05:21:43;6.95;;;2.80;;
8232;SDS011;4157;48.074;9.952;2024-02-21T05:24:10;5.00;;;2.05;;
8232;SDS011;4157;48.074;9.952;2024-02-21T05:26:38;5.97;;;2.60;;
8232;SDS011;4157;48.074;9.952;2024-02-21T05:29:06;5.50;;;2.05;;
8232;SDS011;4157;48.074;9.952;2024-02-21T05:31:42;6.18;;;2.15;;
8232;SDS011;4157;48.074;9.952;2024-02-21T05:34:12;6.40;;;2.22;;
8232;SDS011;4157;48.074;9.952;2024-02-21T05:36:40;6.05;;;2.38;;
8232;SDS011;4157;48.074;9.952;2024-02-21T05:39:07;5.13;;;2.20;;
8232;SDS011;4157;48.074;9.952;2024-02-21T05:41:35;5.80;;;2.60;;
8232;SDS011;4157;48.074;9.952;2024-02-21T05:44:03;6.88;;;2.80;;
8232;SDS011;4157;48.074;9.952;2024-02-21T05:46:30;5.07;;;2.50;;
8232;SDS011;4157;48.074;9.952;2024-02-21T05:48:58;4.13;;;1.90;;
8232;SDS011;4157;48.074;9.952;2024-02-21T05:51:27;5.22;;;2.17;;
8232;SDS011;4157;48.074;9.952;2024-02-21T05:53:55;5.68;;;2.25;;
8232;SDS011;4157;48.074;9.952;2024-02-21T05:56:23;7.85;;;2.58;;
8232;SDS011;4157;48.074;9.952;2024-02-21T05:58:51;5.10;;;2.30;;
8232;SDS011;4157;48.074;9.952;2024-02-21T06:01:18;5.07;;;2.10;;
8232;SDS011;4157;48.074;9.952;2024-02-21T06:03:47;5.30;;;2.15;;
8232;SDS011;4157;48.074;9.952;2024-02-21T06:06:14;5.20;;;2.17;;
8232;SDS011;4157;48.074;9.952;2024-02-21T06:08:43;4.57;;;1.92;;
8232;SDS011;4157;48.074;9.952;2024-02-21T06:11:11;4.85;;;2.03;;
8232;SDS011;4157;48.074;9.952;2024-02-21T06:13:40;6.05;;;2.42;;
8232;SDS011;4157;48.074;9.952;2024-02-21T06:16:08;4.90;;;2.00;;
8232;SDS011;4157;48.074;9.952;2024-02-21T06:18:36;4.38;;;2.10;;
8232;SDS011;4157;48.074;9.952;2024-02-21T06:21:04;6.80;;;2.97;;
8232;SDS011;4157;48.074;9.952;2024-02-21T06:23:31;6.10;;;2.53;;
8232;SDS011;4157;48.074;9.952;2024-02-21T06:26:00;6.07;;;2.40;;
8232;SDS011;4157;48.074;9.952;2024-02-21T06:28:28;7.38;;;2.10;;
8232;SDS011;4157;48.074;9.952;2024-02-21T06:30:56;4.35;;;1.98;;
8232;SDS011;4157;48.074;9.952;2024-02-21T06:33:23;7.72;;;2.30;;
8232;SDS011;4157;48.074;9.952;2024-02-21T06:35:51;4.70;;;2.17;;
8232;SDS011;4157;48.074;9.952;2024-02-21T06:38:19;7.55;;;2.60;;
8232;SDS011;4157;48.074;9.952;2024-02-21T06:40:47;4.95;;;2.03;;
8232;SDS011;4157;48.074;9.952;2024-02-21T06:43:19;4.32;;;1.95;;
8232;SDS011;4157;48.074;9.952;2024-02-21T06:45:48;3.15;;;1.50;;
8232;SDS011;4157;48.074;9.952;2024-02-21T06:48:17;6.07;;;3.40;;
8232;SDS011;4157;48.074;9.952;2024-02-21T06:50:45;6.22;;;2.70;;
8232;SDS011;4157;48.074;9.952;2024-02-21T06:53:12;5.18;;;1.70;;
8232;SDS011;4157;48.074;9.952;2024-02-21T06:55:40;3.85;;;1.80;;
8232;SDS011;4157;48.074;9.952;2024-02-21T06:58:08;4.15;;;1.55;;
8232;SDS011;4157;48.074;9.952;2024-02-21T07:00:39;4.93;;;1.77;;
8232;SDS011;4157;48.074;9.952;2024-02-21T07:03:07;4.63;;;1.95;;
8232;SDS011;4157;48.074;9.952;2024-02-21T07:05:34;5.10;;;1.77;;
8232;SDS011;4157;48.074;9.952;2024-02-21T07:08:02;4.65;;;1.90;;
8232;SDS011;4157;48.074;9.952;2024-02-21T07:10:30;5.78;;;2.30;;
8232;SDS011;4157;48.074;9.952;2024-02-21T07:12:58;3.85;;;1.55;;
8232;SDS011;4157;48.074;9.952;2024-02-21T07:15:25;5.10;;;1.60;;
8232;SDS011;4157;48.074;9.952;2024-02-21T07:17:56;4.35;;;1.35;;
8232;SDS011;4157;48.074;9.952;2024-02-21T07:20:24;4.03;;;1.42;;
8232;SDS011;4157;48.074;9.952;2024-02-21T07:22:52;4.68;;;1.52;;
8232;SDS011;4157;48.074;9.952;2024-02-21T07:25:19;6.10;;;2.50;;
8232;SDS011;4157;48.074;9.952;2024-02-21T07:27:47;2.85;;;1.15;;
8232;SDS011;4157;48.074;9.952;2024-02-21T07:30:15;2.78;;;1.10;;
8232;SDS011;4157;48.074;9.952;2024-02-21T07:32:42;5.38;;;2.00;;
8232;SDS011;4157;48.074;9.952;2024-02-21T07:35:12;5.68;;;1.77;;
8232;SDS011;4157;48.074;9.952;2024-02-21T07:37:39;5.78;;;2.55;;
8232;SDS011;4157;48.074;9.952;2024-02-21T07:40:12;2.95;;;1.20;;
8232;SDS011;4157;48.074;9.952;2024-02-21T07:42:40;4.75;;;1.35;;
8232;SDS011;4157;48.074;9.952;2024-02-21T07:45:08;4.55;;;1.23;;
8232;SDS011;4157;48.074;9.952;2024-02-21T07:47:36;4.45;;;1.20;;
8232;SDS011;4157;48.074;9.952;2024-02-21T07:50:04;2.70;;;1.30;;
8232;SDS011;4157;48.074;9.952;2024-02-21T07:52:34;2.33;;;1.13;;
8232;SDS011;4157;48.074;9.952;2024-02-21T07:55:01;2.38;;;1.13;;
8232;SDS011;4157;48.074;9.952;2024-02-21T07:57:29;3.70;;;1.13;;
8232;SDS011;4157;48.074;9.952;2024-02-21T07:59:57;2.67;;;1.17;;
8232;SDS011;4157;48.074;9.952;2024-02-21T08:02:24;2.72;;;1.13;;
8232;SDS011;4157;48.074;9.952;2024-02-21T08:04:52;3.83;;;1.23;;
8232;SDS011;4157;48.074;9.952;2024-02-21T08:07:20;3.28;;;1.23;;
8232;SDS011;4157;48.074;9.952;2024-02-21T08:09:49;2.53;;;1.15;;
8232;SDS011;4157;48.074;9.952;2024-02-21T08:12:16;1.85;;;0.73;;
8232;SDS011;4157;48.074;9.952;2024-02-21T08:14:44;2.22;;;0.98;;
8232;SDS011;4157;48.074;9.952;2024-02-21T08:17:12;5.97;;;2.10;;
8232;SDS011;4157;48.074;9.952;2024-02-21T08:19:39;3.90;;;1.40;;
8232;SDS011;4157;48.074;9.952;2024-02-21T08:22:07;3.58;;;1.40;;
8232;SDS011;4157;48.074;9.952;2024-02-21T08:24:35;2.65;;;0.98;;
8232;SDS011;4157;48.074;9.952;2024-02-21T08:27:04;2.33;;;0.85;;
8232;SDS011;4157;48.074;9.952;2024-02-21T08:29:32;3.20;;;1.20;;
8232;SDS011;4157;48.074;9.952;2024-02-21T08:31:59;2.35;;;1.02;;
8232;SDS011;4157;48.074;9.952;2024-02-21T08:34:27;2.53;;;1.10;;
8232;SDS011;4157;48.074;9.952;2024-02-21T08:36:56;6.15;;;1.35;;
8232;SDS011;4157;48.074;9.952;2024-02-21T08:39:23;2.63;;;0.85;;
8232;SDS011;4157;48.074;9.952;2024-02-21T08:41:51;3.38;;;0.90;;
8232;SDS011;4157;48.074;9.952;2024-02-21T08:44:21;2.30;;;0.90;;
8232;SDS011;4157;48.074;9.952;2024-02-21T08:46:49;3.13;;;1.10;;
8232;SDS011;4157;48.074;9.952;2024-02-21T08:49:17;3.03;;;1.05;;
8232;SDS011;4157;48.074;9.952;2024-02-21T08:51:44;2.50;;;0.80;;
8232;SDS011;4157;48.074;9.952;2024-02-21T08:54:12;3.20;;;1.10;;
8232;SDS011;4157;48.074;9.952;2024-02-21T08:56:40;8.50;;;3.50;;
8232;SDS011;4157;48.074;9.952;2024-02-21T08:59:08;4.63;;;2.30;;
8232;SDS011;4157;48.074;9.952;2024-02-21T09:01:37;4.38;;;1.58;;
8232;SDS011;4157;48.074;9.952;2024-02-21T09:04:04;5.10;;;1.95;;
8232;SDS011;4157;48.074;9.952;2024-02-21T09:06:33;6.28;;;2.78;;
8232;SDS011;4157;48.074;9.952;2024-02-21T09:09:04;5.10;;;1.60;;
8232;SDS011;4157;48.074;9.952;2024-02-21T09:11:33;4.07;;;1.77;;
8232;SDS011;4157;48.074;9.952;2024-02-21T09:14:01;4.10;;;1.77;;
8232;SDS011;4157;48.074;9.952;2024-02-21T09:16:30;5.78;;;2.90;;
8232;SDS011;4157;48.074;9.952;2024-02-21T09:18:59;6.68;;;3.35;;
8232;SDS011;4157;48.074;9.952;2024-02-21T09:21:27;4.80;;;2.00;;
8232;SDS011;4157;48.074;9.952;2024-02-21T09:23:54;7.18;;;3.60;;
8232;SDS011;4157;48.074;9.952;2024-02-21T09:26:22;5.25;;;1.98;;
8232;SDS011;4157;48.074;9.952;2024-02-21T09:28:50;3.70;;;1.42;;
8232;SDS011;4157;48.074;9.952;2024-02-21T09:31:17;5.72;;;1.55;;
8232;SDS011;4157;48.074;9.952;2024-02-21T09:33:45;4.28;;;1.52;;
8232;SDS011;4157;48.074;9.952;2024-02-21T09:36:14;5.32;;;1.73;;
8232;SDS011;4157;48.074;9.952;2024-02-21T09:38:42;5.68;;;2.13;;
8232;SDS011;4157;48.074;9.952;2024-02-21T09:41:11;2.90;;;1.13;;
8232;SDS011;4157;48.074;9.952;2024-02-21T09:43:42;3.78;;;1.63;;
8232;SDS011;4157;48.074;9.952;2024-02-21T09:46:13;2.70;;;1.25;;
8232;SDS011;4157;48.074;9.952;2024-02-21T09:48:42;4.95;;;1.55;;
8232;SDS011;4157;48.074;9.952;2024-02-21T09:51:22;4.90;;;1.42;;
8232;SDS011;4157;48.074;9.952;2024-02-21T09:53:51;3.88;;;1.63;;
8232;SDS011;4157;48.074;9.952;2024-02-21T09:56:20;5.50;;;1.77;;
8232;SDS011;4157;48.074;9.952;2024-02-21T09:58:48;6.53;;;2.25;;
8232;SDS011;4157;48.074;9.952;2024-02-21T10:01:16;3.25;;;1.50;;
8232;SDS011;4157;48.074;9.952;2024-02-21T10:03:43;5.80;;;1.83;;
8232;SDS011;4157;48.074;9.952;2024-02-21T10:06:11;5.07;;;1.40;;
8232;SDS011;4157;48.074;9.952;2024-02-21T10:08:40;5.70;;;1.88;;
8232;SDS011;4157;48.074;9.952;2024-02-21T10:11:08;4.43;;;1.50;;
8232;SDS011;4157;48.074;9.952;2024-02-21T10:13:35;4.68;;;1.20;;
8232;SDS011;4157;48.074;9.952;2024-02-21T10:16:04;3.58;;;1.20;;
8232;SDS011;4157;48.074;9.952;2024-02-21T10:18:32;4.43;;;1.45;;
8232;SDS011;4157;48.074;9.952;2024-02-21T10:21:01;3.85;;;1.42;;
8232;SDS011;4157;48.074;9.952;2024-02-21T10:23:28;6.38;;;1.30;;
8232;SDS011;4157;48.074;9.952;2024-02-21T10:26:05;4.03;;;1.20;;
8232;SDS011;4157;48.074;9.952;2024-02-21T10:28:33;3.83;;;1.05;;
8232;SDS011;4157;48.074;9.952;2024-02-21T10:31:01;4.80;;;1.42;;
8232;SDS011;4157;48.074;9.952;2024-02-21T10:33:28;4.38;;;1.60;;
8232;SDS011;4157;48.074;9.952;2024-02-21T10:36:05;3.78;;;1.20;;
8232;SDS011;4157;48.074;9.952;2024-02-21T10:38:34;3.33;;;1.00;;
8232;SDS011;4157;48.074;9.952;2024-02-21T10:41:02;2.25;;;1.10;;
8232;SDS011;4157;48.074;9.952;2024-02-21T10:43:33;4.00;;;1.35;;
8232;SDS011;4157;48.074;9.952;2024-02-21T10:46:03;3.67;;;1.40;;
8232;SDS011;4157;48.074;9.952;2024-02-21T10:48:33;2.35;;;1.13;;
8232;SDS011;4157;48.074;9.952;2024-02-21T10:51:07;4.05;;;1.20;;
8232;SDS011;4157;48.074;9.952;2024-02-21T10:53:39;5.80;;;1.40;;
8232;SDS011;4157;48.074;9.952;2024-02-21T10:56:11;3.42;;;1.40;;
8232;SDS011;4157;48.074;9.952;2024-02-21T10:58:45;3.83;;;1.30;;
8232;SDS011;4157;48.074;9.952;2024-02-21T11:01:13;2.63;;;1.20;;
8232;SDS011;4157;48.074;9.952;2024-02-21T11:03:43;2.08;;;0.80;;
8232;SDS011;4157;48.074;9.952;2024-02-21T11:06:11;3.47;;;1.20;;
8232;SDS011;4157;48.074;9.952;2024-02-21T11:08:39;3.83;;;1.10;;
8232;SDS011;4157;48.074;9.952;2024-02-21T11:11:07;3.97;;;1.33;;
8232;SDS011;4157;48.074;9.952;2024-02-21T11:13:36;3.58;;;1.33;;
8232;SDS011;4157;48.074;9.952;2024-02-21T11:16:09;2.78;;;1.17;;
8232;SDS011;4157;48.074;9.952;2024-02-21T11:18:37;4.05;;;1.20;;
8232;SDS011;4157;48.074;9.952;2024-02-21T11:21:05;3.90;;;0.90;;
8232;SDS011;4157;48.074;9.952;2024-02-21T11:23:33;4.40;;;1.13;;
8232;SDS011;4157;48.074;9.952;2024-02-21T11:28:32;2.97;;;1.00;;
8232;SDS011;4157;48.074;9.952;2024-02-21T11:31:10;5.78;;;2.92;;
8232;SDS011;4157;48.074;9.952;2024-02-21T11:33:40;3.47;;;1.10;;
8232;SDS011;4157;48.074;9.952;2024-02-21T11:36:08;4.38;;;1.40;;
8232;SDS011;4157;48.074;9.952;2024-02-21T11:38:36;2.97;;;1.10;;
8232;SDS011;4157;48.074;9.952;2024-02-21T11:41:03;2.97;;;1.00;;
8232;SDS011;4157;48.074;9.952;2024-02-21T11:43:36;3.72;;;1.42;;
8232;SDS011;4157;48.074;9.952;2024-02-21T11:46:03;4.45;;;1.35;;
8232;SDS011;4157;48.074;9.952;2024-02-21T11:48:33;4.90;;;1.25;;
8232;SDS011;4157;48.074;9.952;2024-02-21T11:51:00;3.47;;;1.15;;
8232;SDS011;4157;48.074;9.952;2024-02-21T11:53:29;3.65;;;1.02;;
8232;SDS011;4157;48.074;9.952;2024-02-21T11:55:58;3.88;;;1.20;;
8232;SDS011;4157;48.074;9.952;2024-02-21T11:58:26;3.30;;;1.23;;
8232;SDS011;4157;48.074;9.952;2024-02-21T12:00:55;3.58;;;1.30;;
8232;SDS011;4157;48.074;9.952;2024-02-21T12:03:22;3.38;;;1.33;;
8232;SDS011;4157;48.074;9.952;2024-02-21T12:05:52;2.60;;;1.20;;
8232;SDS011;4157;48.074;9.952;2024-02-21T12:08:22;2.67;;;1.10;;
8232;SDS011;4157;48.074;9.952;2024-02-21T12:10:50;2.65;;;1.20;;
8232;SDS011;4157;48.074;9.952;2024-02-21T12:13:18;2.97;;;1.00;;
8232;SDS011;4157;48.074;9.952;2024-02-21T12:15:50;3.47;;;1.23;;
8232;SDS011;4157;48.074;9.952;2024-02-21T12:18:17;3.47;;;1.13;;
8232;SDS011;4157;48.074;9.952;2024-02-21T12:20:47;2.40;;;1.10;;
8232;SDS011;4157;48.074;9.952;2024-02-21T12:23:16;2.65;;;0.90;;
8232;SDS011;4157;48.074;9.952;2024-02-21T12:25:45;4.20;;;1.30;;
8232;SDS011;4157;48.074;9.952;2024-02-21T12:28:13;2.90;;;1.30;;
8232;SDS011;4157;48.074;9.952;2024-02-21T12:30:43;4.45;;;1.40;;
8232;SDS011;4157;48.074;9.952;2024-02-21T12:33:11;2.88;;;1.35;;
8232;SDS011;4157;48.074;9.952;2024-02-21T12:35:40;3.75;;;1.20;;
8232;SDS011;4157;48.074;9.952;2024-02-21T12:38:07;2.70;;;1.25;;
8232;SDS011;4157;48.074;9.952;2024-02-21T12:40:38;4.47;;;1.45;;
8232;SDS011;4157;48.074;9.952;2024-02-21T12:43:06;4.53;;;1.00;;
8232;SDS011;4157;48.074;9.952;2024-02-21T12:45:33;3.03;;;1.55;;
8232;SDS011;4157;48.074;9.952;2024-02-21T12:48:01;4.88;;;1.98;;
8232;SDS011;4157;48.074;9.952;2024-02-21T12:50:30;3.88;;;1.50;;
8232;SDS011;4157;48.074;9.952;2024-02-21T12:52:58;3.30;;;1.38;;
8232;SDS011;4157;48.074;9.952;2024-02-21T12:55:26;2.92;;;1.20;;
8232;SDS011;4157;48.074;9.952;2024-02-21T12:57:55;2.88;;;1.30;;
8232;SDS011;4157;48.074;9.952;2024-02-21T13:00:22;2.42;;;1.05;;
8232;SDS011;4157;48.074;9.952;2024-02-21T13:02:53;2.55;;;1.10;;
8232;SDS011;4157;48.074;9.952;2024-02-21T13:05:20;3.03;;;1.17;;
8232;SDS011;4157;48.074;9.952;2024-02-21T13:07:48;3.53;;;1.20;;
8232;SDS011;4157;48.074;9.952;2024-02-21T13:10:16;3.20;;;1.30;;
8232;SDS011;4157;48.074;9.952;2024-02-21T13:12:44;3.33;;;1.60;;
8232;SDS011;4157;48.074;9.952;2024-02-21T13:15:14;3.47;;;1.73;;
8232;SDS011;4157;48.074;9.952;2024-02-21T13:17:43;4.78;;;1.65;;
8232;SDS011;4157;48.074;9.952;2024-02-21T13:20:11;3.80;;;1.50;;
8232;SDS011;4157;48.074;9.952;2024-02-21T13:22:38;3.00;;;1.20;;
8232;SDS011;4157;48.074;9.952;2024-02-21T13:25:06;2.67;;;1.17;;
8232;SDS011;4157;48.074;9.952;2024-02-21T13:27:34;4.65;;;1.45;;
8232;SDS011;4157;48.074;9.952;2024-02-21T13:30:02;5.22;;;2.55;;
8232;SDS011;4157;48.074;9.952;2024-02-21T13:32:33;4.25;;;1.70;;
8232;SDS011;4157;48.074;9.952;2024-02-21T13:35:00;2.42;;;1.20;;
8232;SDS011;4157;48.074;9.952;2024-02-21T13:37:28;1.85;;;0.90;;
8232;SDS011;4157;48.074;9.952;2024-02-21T13:39:56;2.28;;;0.90;;
8232;SDS011;4157;48.074;9.952;2024-02-21T13:42:24;3.83;;;1.25;;
8232;SDS011;4157;48.074;9.952;2024-02-21T13:44:53;4.20;;;1.75;;
8232;SDS011;4157;48.074;9.952;2024-02-21T13:47:21;3.20;;;1.20;;
8232;SDS011;4157;48.074;9.952;2024-02-21T13:49:50;2.15;;;0.95;;
8232;SDS011;4157;48.074;9.952;2024-02-21T13:52:17;2.95;;;1.02;;
8232;SDS011;4157;48.074;9.952;2024-02-21T13:54:46;2.00;;;0.90;;
8232;SDS011;4157;48.074;9.952;2024-02-21T13:57:14;2.30;;;1.10;;
8232;SDS011;4157;48.074;9.952;2024-02-21T13:59:42;2.42;;;1.00;;
8232;SDS011;4157;48.074;9.952;2024-02-21T14:02:09;2.15;;;0.90;;
8232;SDS011;4157;48.074;9.952;2024-02-21T14:04:38;2.63;;;1.10;;
8232;SDS011;4157;48.074;9.952;2024-02-21T14:07:07;2.40;;;0.98;;
8232;SDS011;4157;48.074;9.952;2024-02-21T14:09:34;3.92;;;1.08;;
8232;SDS011;4157;48.074;9.952;2024-02-21T14:12:02;2.90;;;1.02;;
8232;SDS011;4157;48.074;9.952;2024-02-21T14:14:33;3.13;;;1.35;;
8232;SDS011;4157;48.074;9.952;2024-02-21T14:17:01;4.25;;;1.48;;
8232;SDS011;4157;48.074;9.952;2024-02-21T14:19:29;4.05;;;1.50;;
8232;SDS011;4157;48.074;9.952;2024-02-21T14:21:57;4.55;;;1.58;;
8232;SDS011;4157;48.074;9.952;2024-02-21T14:24:26;3.53;;;1.33;;
8232;SDS011;4157;48.074;9.952;2024-02-21T14:26:54;3.85;;;1.38;;
8232;SDS011;4157;48.074;9.952;2024-02-21T14:29:22;6.68;;;3.90;;
8232;SDS011;4157;48.074;9.952;2024-02-21T14:31:49;5.97;;;3.25;;
8232;SDS011;4157;48.074;9.952;2024-02-21T14:34:17;7.15;;;3.05;;
8232;SDS011;4157;48.074;9.952;2024-02-21T14:36:45;4.90;;;1.98;;
8232;SDS011;4157;48.074;9.952;2024-02-21T14:39:12;5.93;;;1.95;;
8232;SDS011;4157;48.074;9.952;2024-02-21T14:41:41;3.50;;;1.60;;
8232;SDS011;4157;48.074;9.952;2024-02-21T14:44:09;4.97;;;1.77;;
8232;SDS011;4157;48.074;9.952;2024-02-21T14:46:37;3.25;;;1.50;;
8232;SDS011;4157;48.074;9.952;2024-02-21T14:49:04;4.07;;;1.60;;
8232;SDS011;4157;48.074;9.952;2024-02-21T14:51:32;5.90;;;1.80;;
8232;SDS011;4157;48.074;9.952;2024-02-21T14:54:00;5.28;;;1.42;;
8232;SDS011;4157;48.074;9.952;2024-02-21T14:56:27;3.60;;;1.80;;
8232;SDS011;4157;48.074;9.952;2024-02-21T14:58:56;2.85;;;1.58;;
8232;SDS011;4157;48.074;9.952;2024-02-21T15:01:24;7.47;;;3.00;;
8232;SDS011;4157;48.074;9.952;2024-02-21T15:03:52;12.38;;;6.90;;
8232;SDS011;4157;48.074;9.952;2024-02-21T15:06:19;7.13;;;3.03;;
8232;SDS011;4157;48.074;9.952;2024-02-21T15:08:47;10.45;;;5.72;;
8232;SDS011;4157;48.074;9.952;2024-02-21T15:11:15;9.68;;;6.05;;
8232;SDS011;4157;48.074;9.952;2024-02-21T15:13:43;5.28;;;2.53;;
8232;SDS011;4157;48.074;9.952;2024-02-21T15:16:13;3.63;;;2.08;;
8232;SDS011;4157;48.074;9.952;2024-02-21T15:18:41;4.90;;;1.90;;
8232;SDS011;4157;48.074;9.952;2024-02-21T15:21:09;4.85;;;2.10;;
8232;SDS011;4157;48.074;9.952;2024-02-21T15:23:39;4.32;;;1.95;;